Time;durP1;ratioP1;P1;durP2;ratioP2;P2;SDS_P1;SDS_P2;PMS_P1;PMS_P2;Temp;Humidity;BMP_temperature;BMP_pressure;BME280_temperature;BME280_humidity;BME280_pressure;Samples;Min_cycle;Max_cycle;Signal;HPM_P1;HPM_P2
2023/05/21 00:02:10;;;;;;;22.87;13.30;;;14.30;99.90;;;;;;6175498;23;20178;-75
2023/05/21 00:04:39;;;;;;;15.47;13.03;;;14.20;99.90;;;;;;6173498;23;20780;-74
2023/05/21 00:07:05;;;;;;;15.10;11.97;;;14.20;99.90;;;;;;6174119;23;20613;-77
2023/05/21 00:09:31;;;;;;;16.37;11.83;;;14.20;99.90;;;;;;6201412;23;20412;-77
2023/05/21 00:11:57;;;;;;;16.80;13.50;;;14.20;99.90;;;;;;6199554;23;20367;-74
2023/05/21 00:14:22;;;;;;;18.27;14.77;;;14.10;99.90;;;;;;6198821;23;20369;-77
2023/05/21 00:16:48;;;;;;;23.33;14.97;;;14.10;99.90;;;;;;6198230;23;20500;-77
2023/05/21 00:19:13;;;;;;;15.83;12.60;;;14.10;99.90;;;;;;6176162;23;20170;-75
2023/05/21 00:21:39;;;;;;;20.43;15.73;;;14.00;99.90;;;;;;6198910;23;20198;-75
2023/05/21 00:24:06;;;;;;;15.37;12.80;;;14.00;99.90;;;;;;6199278;23;20146;-74
2023/05/21 00:26:31;;;;;;;15.27;11.57;;;14.00;99.90;;;;;;6171123;23;20819;-75
2023/05/21 00:28:58;;;;;;;15.53;11.77;;;13.90;99.90;;;;;;6170572;23;20358;-74
2023/05/21 00:31:24;;;;;;;16.43;12.80;;;13.90;99.90;;;;;;6195799;23;20443;-74
2023/05/21 00:33:50;;;;;;;14.63;11.70;;;13.90;99.90;;;;;;6173376;23;20162;-73
2023/05/21 00:36:16;;;;;;;15.90;13.53;;;13.90;99.90;;;;;;6201839;23;20138;-75
2023/05/21 00:38:42;;;;;;;14.60;12.07;;;13.90;99.90;;;;;;6197392;23;20139;-74
2023/05/21 00:41:11;;;;;;;14.37;11.80;;;13.90;99.90;;;;;;6171600;23;20489;-74
2023/05/21 00:43:40;;;;;;;15.40;11.63;;;13.80;99.90;;;;;;6173056;23;20436;-73
2023/05/21 00:46:10;;;;;;;17.87;12.70;;;13.80;99.90;;;;;;6197476;23;20378;-74
2023/05/21 00:48:38;;;;;;;18.30;13.60;;;13.80;99.90;;;;;;6171748;23;20438;-76
2023/05/21 00:51:04;;;;;;;17.70;13.00;;;13.80;99.90;;;;;;6172703;23;20465;-73
2023/05/21 00:53:33;;;;;;;14.63;12.33;;;13.80;99.90;;;;;;6171980;23;20366;-73
2023/05/21 00:56:00;;;;;;;16.87;12.60;;;13.80;99.90;;;;;;6164743;23;20383;-76
2023/05/21 00:58:26;;;;;;;15.43;12.77;;;13.80;99.90;;;;;;6165615;23;20379;-74
2023/05/21 01:00:55;;;;;;;20.97;12.50;;;13.80;99.90;;;;;;6141746;23;20402;-76
2023/05/21 01:03:24;;;;;;;16.27;12.97;;;13.80;99.90;;;;;;6165747;23;20429;-73
2023/05/21 01:05:52;;;;;;;15.73;12.33;;;13.80;99.90;;;;;;6140420;23;20751;-75
2023/05/21 01:08:21;;;;;;;14.73;11.77;;;13.80;99.90;;;;;;6137691;23;20873;-73
2023/05/21 01:10:51;;;;;;;12.30;11.07;;;13.70;99.90;;;;;;6138378;23;20514;-73
2023/05/21 01:13:19;;;;;;;14.17;11.70;;;13.70;99.90;;;;;;6144510;23;20375;-76
2023/05/21 01:15:46;;;;;;;16.30;12.73;;;13.70;99.90;;;;;;6167278;23;20450;-74
2023/05/21 01:18:13;;;;;;;16.40;12.60;;;13.70;99.90;;;;;;6168942;23;20371;-75
2023/05/21 01:20:41;;;;;;;16.83;13.30;;;13.70;99.90;;;;;;6167711;23;20399;-74
2023/05/21 01:23:07;;;;;;;17.03;13.50;;;13.70;99.90;;;;;;6142666;23;20404;-75
2023/05/21 01:25:34;;;;;;;14.83;12.27;;;13.70;99.90;;;;;;6140874;23;20378;-73
2023/05/21 01:27:59;;;;;;;16.23;12.50;;;13.70;99.90;;;;;;6139301;23;20414;-73
2023/05/21 01:30:25;;;;;;;13.43;12.03;;;13.70;99.90;;;;;;6168135;23;20739;-73
2023/05/21 01:32:57;;;;;;;15.13;12.73;;;13.60;99.90;;;;;;6167880;23;20132;-73
2023/05/21 01:35:30;;;;;;;14.33;11.57;;;13.60;99.90;;;;;;6167802;23;20415;-75
2023/05/21 01:38:07;;;;;;;15.90;12.83;;;13.60;99.90;;;;;;6145956;23;20391;-76
2023/05/21 01:40:45;;;;;;;18.20;13.80;;;13.60;99.90;;;;;;6144591;23;20438;-73
2023/05/21 01:43:13;;;;;;;16.23;12.27;;;13.60;99.90;;;;;;6139100;23;20413;-73
2023/05/21 01:45:41;;;;;;;16.27;12.17;;;13.60;99.90;;;;;;6150722;23;20374;-76
2023/05/21 01:48:08;;;;;;;18.30;13.70;;;13.60;99.90;;;;;;6172935;23;20400;-73
2023/05/21 01:50:36;;;;;;;16.77;13.53;;;13.60;99.90;;;;;;6176362;23;20410;-74
2023/05/21 01:53:02;;;;;;;16.67;12.87;;;13.50;99.90;;;;;;6199427;23;20370;-72
2023/05/21 01:55:29;;;;;;;15.33;12.57;;;13.60;99.90;;;;;;6197644;23;20675;-74
2023/05/21 01:57:56;;;;;;;15.93;13.27;;;13.50;99.90;;;;;;6198527;23;20409;-72
2023/05/21 02:00:25;;;;;;;15.17;12.23;;;13.50;99.90;;;;;;6198691;23;20413;-72
2023/05/21 02:02:51;;;;;;;15.60;13.03;;;13.50;99.90;;;;;;6170434;23;20398;-75
2023/05/21 02:05:17;;;;;;;13.63;11.93;;;13.50;99.90;;;;;;6169941;23;20393;-73
2023/05/21 02:07:44;;;;;;;17.83;12.93;;;13.50;99.90;;;;;;6195908;23;20134;-73
2023/05/21 02:10:10;;;;;;;17.70;11.47;;;13.50;99.90;;;;;;6196974;23;20170;-73
2023/05/21 02:12:36;;;;;;;15.00;12.97;;;13.40;99.90;;;;;;6196257;23;20467;-73
2023/05/21 02:15:02;;;;;;;12.63;10.07;;;13.40;99.90;;;;;;6197356;23;20644;-73
2023/05/21 02:17:32;;;;;;;15.63;12.00;;;13.40;99.90;;;;;;6146660;23;20380;-72
2023/05/21 02:20:10;;;;;;;17.10;11.77;;;13.40;99.90;;;;;;6175371;23;20421;-73
2023/05/21 02:22:40;;;;;;;14.90;12.40;;;13.50;99.90;;;;;;6173994;23;20407;-74
2023/05/21 02:25:07;;;;;;;14.33;10.80;;;13.40;99.90;;;;;;6195804;23;20362;-74
2023/05/21 02:27:37;;;;;;;13.87;11.33;;;13.40;99.90;;;;;;6195503;23;20397;-73
2023/05/21 02:30:06;;;;;;;13.00;11.47;;;13.40;99.90;;;;;;6170742;23;20420;-72
2023/05/21 02:32:32;;;;;;;12.33;9.90;;;13.40;99.90;;;;;;6148125;23;20643;-74
2023/05/21 02:34:58;;;;;;;16.47;12.07;;;13.40;99.90;;;;;;6196236;23;20372;-72
2023/05/21 02:37:27;;;;;;;12.00;10.77;;;13.40;99.90;;;;;;6171046;23;20401;-72
2023/05/21 02:39:54;;;;;;;10.53;9.43;;;13.30;99.90;;;;;;6197406;23;20166;-74
2023/05/21 02:42:21;;;;;;;11.70;9.63;;;13.30;99.90;;;;;;6169562;23;20417;-73
2023/05/21 02:44:48;;;;;;;10.90;8.73;;;13.30;99.90;;;;;;6170001;23;20621;-72
2023/05/21 02:47:14;;;;;;;12.10;10.10;;;13.30;99.90;;;;;;6169969;23;20362;-72
2023/05/21 02:49:40;;;;;;;15.47;11.70;;;13.30;99.90;;;;;;6170009;23;20409;-72
2023/05/21 02:52:06;;;;;;;14.77;11.00;;;13.20;99.90;;;;;;6173735;23;20200;-73
2023/05/21 02:54:31;;;;;;;20.90;13.90;;;13.20;99.90;;;;;;6202221;23;20273;-73
2023/05/21 02:56:57;;;;;;;16.30;12.23;;;13.30;99.90;;;;;;6201028;23;20174;-72
2023/05/21 02:59:23;;;;;;;14.27;11.50;;;13.30;99.90;;;;;;6200168;23;20186;-76
2023/05/21 03:01:49;;;;;;;14.60;11.67;;;13.30;99.90;;;;;;6174367;23;20362;-73
2023/05/21 03:04:16;;;;;;;15.07;10.90;;;13.20;99.90;;;;;;6201258;23;20425;-73
2023/05/21 03:06:42;;;;;;;16.90;11.93;;;13.30;99.90;;;;;;6168610;23;20515;-73
2023/05/21 03:09:08;;;;;;;16.90;10.97;;;13.30;99.90;;;;;;6167936;23;20398;-72
2023/05/21 03:11:34;;;;;;;11.83;9.00;;;13.30;99.90;;;;;;6195017;23;20369;-73
2023/05/21 03:13:59;;;;;;;15.60;11.93;;;13.20;99.90;;;;;;6168555;23;20381;-72
2023/05/21 03:16:25;;;;;;;15.63;12.00;;;13.20;99.90;;;;;;6195607;23;20199;-74
2023/05/21 03:18:51;;;;;;;13.40;10.87;;;13.30;99.90;;;;;;6169844;23;20406;-73
2023/05/21 03:21:16;;;;;;;15.87;11.13;;;13.30;99.90;;;;;;6194772;23;20136;-73
2023/05/21 03:23:42;;;;;;;16.63;12.30;;;13.30;99.90;;;;;;6196686;23;20163;-73
2023/05/21 03:26:08;;;;;;;14.93;10.70;;;13.30;99.90;;;;;;6195965;23;20134;-73
2023/05/21 03:28:36;;;;;;;14.23;10.33;;;13.30;99.90;;;;;;6195406;23;20135;-73
2023/05/21 03:31:02;;;;;;;13.50;10.30;;;13.20;99.90;;;;;;6168572;23;20170;-74
2023/05/21 03:33:33;;;;;;;14.10;11.53;;;13.20;99.90;;;;;;6201726;23;20366;-72
2023/05/21 03:36:04;;;;;;;13.27;10.10;;;13.20;99.90;;;;;;6160592;23;20385;-71
2023/05/21 03:38:34;;;;;;;10.47;8.40;;;13.20;99.90;;;;;;6160019;23;20386;-72
2023/05/21 03:40:59;;;;;;;13.17;9.00;;;13.10;99.90;;;;;;6160025;23;20489;-71
2023/05/21 03:43:25;;;;;;;12.67;9.87;;;13.20;99.90;;;;;;6160068;23;20185;-71
2023/05/21 03:45:52;;;;;;;13.63;11.03;;;13.10;99.90;;;;;;6163355;23;20374;-76
2023/05/21 03:48:43;;;;;;;12.70;10.07;;;13.10;99.90;;;;;;6193467;23;20182;-75
2023/05/21 03:51:12;;;;;;;12.50;9.90;;;13.10;99.90;;;;;;6166897;23;20453;-72
2023/05/21 03:53:37;;;;;;;12.17;10.87;;;13.10;99.90;;;;;;6166991;23;20366;-72
2023/05/21 03:56:03;;;;;;;10.90;8.50;;;13.10;99.90;;;;;;6163904;23;20409;-71
2023/05/21 03:58:30;;;;;;;16.40;12.00;;;13.20;99.90;;;;;;6159430;23;20146;-72
2023/05/21 04:00:57;;;;;;;12.73;11.03;;;13.10;99.90;;;;;;6163036;23;20405;-73
2023/05/21 04:03:22;;;;;;;14.03;10.20;;;13.20;99.90;;;;;;6166048;23;20474;-71
2023/05/21 04:05:49;;;;;;;11.67;9.20;;;13.20;99.90;;;;;;6173247;23;20190;-71
2023/05/21 04:08:15;;;;;;;14.03;11.03;;;13.20;99.90;;;;;;6171686;23;20209;-72
2023/05/21 04:10:41;;;;;;;14.33;9.63;;;13.20;99.90;;;;;;6192480;23;20405;-72
2023/05/21 04:13:06;;;;;;;15.10;10.37;;;13.20;99.90;;;;;;6191898;23;20158;-72
2023/05/21 04:15:33;;;;;;;11.10;9.10;;;13.30;99.90;;;;;;6167240;23;20238;-73
2023/05/21 04:17:59;;;;;;;12.10;10.00;;;13.30;99.90;;;;;;6199728;23;20484;-70
2023/05/21 04:20:24;;;;;;;12.27;10.77;;;13.30;99.90;;;;;;6173770;23;20397;-72
2023/05/21 04:22:50;;;;;;;15.17;10.57;;;13.30;99.90;;;;;;6193136;23;20580;-71
2023/05/21 04:25:16;;;;;;;13.70;9.33;;;13.30;99.90;;;;;;6192079;23;20142;-72
2023/05/21 04:27:46;;;;;;;12.13;9.67;;;13.30;99.90;;;;;;6165845;23;20386;-72
2023/05/21 04:30:12;;;;;;;9.93;8.87;;;13.30;99.90;;;;;;6165727;23;20479;-73
2023/05/21 04:32:39;;;;;;;11.50;9.40;;;13.30;99.90;;;;;;6166700;23;20378;-73
2023/05/21 04:35:06;;;;;;;16.53;11.17;;;13.30;99.90;;;;;;6193426;23;20362;-72
2023/05/21 04:37:33;;;;;;;14.20;10.97;;;13.40;99.90;;;;;;6193458;23;20365;-72
2023/05/21 04:40:01;;;;;;;12.10;10.90;;;13.40;99.90;;;;;;6167202;23;20389;-71
2023/05/21 04:42:27;;;;;;;12.13;10.20;;;13.40;99.90;;;;;;6192614;23;20413;-72
2023/05/21 04:44:54;;;;;;;11.83;9.70;;;13.50;99.90;;;;;;6167302;23;20365;-74
2023/05/21 04:47:20;;;;;;;12.10;9.77;;;13.50;99.90;;;;;;6169247;23;20363;-73
2023/05/21 04:49:46;;;;;;;13.77;10.20;;;13.50;99.90;;;;;;6169745;23;20241;-73
2023/05/21 04:52:14;;;;;;;10.83;9.73;;;13.50;99.90;;;;;;6169588;23;20385;-72
2023/05/21 04:54:40;;;;;;;10.80;9.40;;;13.60;99.90;;;;;;6194381;23;20135;-72
2023/05/21 04:57:07;;;;;;;10.97;9.27;;;13.60;99.90;;;;;;6167682;23;20463;-72
2023/05/21 04:59:34;;;;;;;11.00;8.80;;;13.60;99.90;;;;;;6193697;23;20393;-72
2023/05/21 05:02:00;;;;;;;9.70;8.70;;;13.60;99.90;;;;;;6169552;23;21172;-72
2023/05/21 05:04:26;;;;;;;9.10;8.20;;;13.70;99.90;;;;;;6194121;23;20366;-71
2023/05/21 05:06:52;;;;;;;11.40;9.73;;;13.70;99.90;;;;;;6194261;23;20130;-71
2023/05/21 05:09:20;;;;;;;9.73;8.33;;;13.70;99.90;;;;;;6168241;23;20436;-73
2023/05/21 05:11:46;;;;;;;11.50;9.43;;;13.80;99.90;;;;;;6168531;23;20228;-71
2023/05/21 05:14:12;;;;;;;14.37;10.17;;;13.80;99.90;;;;;;6169498;23;20389;-72
2023/05/21 05:16:38;;;;;;;10.13;8.77;;;13.90;99.90;;;;;;6169356;23;20373;-74
2023/05/21 05:19:04;;;;;;;13.03;10.53;;;13.90;99.90;;;;;;6199215;23;20182;-72
2023/05/21 05:21:29;;;;;;;10.70;8.50;;;14.00;99.90;;;;;;6170498;23;20147;-71
2023/05/21 05:23:55;;;;;;;9.37;7.40;;;14.00;99.90;;;;;;6169758;23;20162;-73
2023/05/21 05:26:25;;;;;;;9.57;8.60;;;14.10;99.90;;;;;;6171599;23;20189;-74
2023/05/21 05:28:51;;;;;;;18.07;10.00;;;14.10;99.90;;;;;;6197576;23;20473;-72
2023/05/21 05:31:17;;;;;;;10.07;9.07;;;14.20;99.90;;;;;;6170162;23;20374;-73
2023/05/21 05:33:43;;;;;;;11.70;8.60;;;14.30;99.90;;;;;;6169167;23;20689;-72
2023/05/21 05:36:10;;;;;;;9.20;8.10;;;14.40;99.90;;;;;;6198726;23;20362;-72
2023/05/21 05:38:36;;;;;;;10.40;9.20;;;14.50;99.90;;;;;;6169458;23;20454;-72
2023/05/21 05:41:02;;;;;;;9.63;7.73;;;14.50;99.90;;;;;;6175914;23;20397;-73
2023/05/21 05:43:28;;;;;;;10.80;9.07;;;14.50;99.90;;;;;;6177055;23;20179;-73
2023/05/21 05:45:55;;;;;;;11.40;9.40;;;14.50;99.90;;;;;;6172333;23;20157;-71
2023/05/21 05:48:20;;;;;;;13.47;10.27;;;14.50;99.90;;;;;;6173161;23;20486;-72
2023/05/21 05:50:47;;;;;;;11.37;10.17;;;14.50;99.90;;;;;;6171453;23;20174;-72
2023/05/21 05:53:13;;;;;;;10.20;8.27;;;14.50;99.90;;;;;;6177976;23;20149;-73
2023/05/21 05:55:39;;;;;;;9.57;7.70;;;14.60;99.90;;;;;;6174357;23;20377;-73
2023/05/21 05:58:05;;;;;;;7.83;6.90;;;14.70;99.90;;;;;;6198256;23;20152;-74
2023/05/21 06:00:41;;;;;;;11.70;8.17;;;14.80;99.90;;;;;;6171854;23;20434;-73
2023/05/21 06:03:06;;;;;;;15.33;8.63;;;14.90;99.90;;;;;;6172153;23;20496;-71
2023/05/21 06:05:32;;;;;;;11.07;8.83;;;14.90;99.90;;;;;;6171213;23;20200;-72
2023/05/21 06:07:57;;;;;;;13.77;9.50;;;15.00;99.90;;;;;;6172980;23;20194;-74
2023/05/21 06:10:23;;;;;;;10.33;9.33;;;15.10;99.90;;;;;;6198698;23;20191;-72
2023/05/21 06:12:49;;;;;;;10.00;9.00;;;15.10;99.90;;;;;;6171488;23;20819;-72
2023/05/21 06:15:18;;;;;;;9.17;8.27;;;15.20;99.90;;;;;;6168353;23;20155;-72
2023/05/21 06:17:44;;;;;;;10.70;9.70;;;15.20;99.90;;;;;;6167431;23;20684;-72
2023/05/21 06:20:11;;;;;;;10.83;8.20;;;15.30;99.90;;;;;;6167871;23;20406;-72
2023/05/21 06:22:37;;;;;;;10.97;8.67;;;15.40;99.90;;;;;;6194101;23;20435;-74
2023/05/21 06:25:05;;;;;;;7.40;6.50;;;15.50;99.90;;;;;;6167350;23;20374;-73
2023/05/21 06:27:32;;;;;;;12.97;10.80;;;15.60;99.90;;;;;;6168708;23;20445;-72
2023/05/21 06:29:59;;;;;;;11.80;10.30;;;15.60;99.90;;;;;;6170265;23;20421;-74
2023/05/21 06:32:24;;;;;;;9.03;8.13;;;15.70;99.90;;;;;;6168431;23;20448;-72
2023/05/21 06:34:50;;;;;;;7.73;7.03;;;15.80;99.90;;;;;;6197769;23;20157;-73
2023/05/21 06:37:20;;;;;;;9.97;8.37;;;16.00;99.90;;;;;;6168096;23;20397;-72
2023/05/21 06:39:45;;;;;;;10.03;9.03;;;16.10;99.90;;;;;;6144061;23;20440;-73
2023/05/21 06:42:11;;;;;;;10.87;8.80;;;16.30;99.90;;;;;;6166976;23;20468;-73
2023/05/21 06:45:00;;;;;;;10.87;8.23;;;16.50;99.90;;;;;;6192082;23;20151;-74
2023/05/21 06:47:32;;;;;;;15.60;10.87;;;16.90;99.90;;;;;;6169558;23;20381;-74
2023/05/21 06:49:58;;;;;;;8.93;8.03;;;17.10;99.90;;;;;;6167986;23;20409;-70
2023/05/21 06:52:25;;;;;;;13.83;11.60;;;17.40;99.90;;;;;;6193649;23;20171;-73
2023/05/21 06:54:52;;;;;;;9.80;8.80;;;17.50;97.60;;;;;;6169913;23;20873;-74
2023/05/21 06:57:19;;;;;;;9.80;8.80;;;17.70;98.10;;;;;;6170864;23;20374;-72
2023/05/21 06:59:44;;;;;;;10.83;9.60;;;18.10;96.00;;;;;;6175231;23;20488;-73
2023/05/21 07:02:10;;;;;;;11.83;9.53;;;18.20;94.40;;;;;;6195336;23;20167;-71
2023/05/21 07:04:35;;;;;;;11.63;10.47;;;18.40;93.00;;;;;;6168166;23;20206;-72
2023/05/21 07:07:03;;;;;;;12.00;10.67;;;18.60;90.60;;;;;;6167254;23;20157;-71
2023/05/21 07:09:30;;;;;;;10.33;8.70;;;18.70;90.00;;;;;;6168641;23;20229;-71
2023/05/21 07:11:56;;;;;;;8.30;7.50;;;18.90;88.50;;;;;;6169070;23;20378;-71
2023/05/21 07:14:25;;;;;;;10.70;9.30;;;19.10;86.00;;;;;;6168319;23;20388;-72
2023/05/21 07:16:51;;;;;;;10.00;9.00;;;19.20;82.40;;;;;;6168443;23;20222;-72
2023/05/21 07:19:17;;;;;;;14.10;10.97;;;19.10;82.40;;;;;;6142767;23;20461;-73
2023/05/21 07:21:43;;;;;;;10.70;9.60;;;19.00;80.50;;;;;;6168870;23;20230;-71
2023/05/21 07:24:10;;;;;;;11.00;9.77;;;18.90;84.10;;;;;;6195671;23;20373;-73
2023/05/21 07:26:39;;;;;;;9.43;8.57;;;18.80;86.20;;;;;;6166847;23;20453;-73
2023/05/21 07:29:05;;;;;;;13.43;10.00;;;18.80;86.50;;;;;;6169974;23;20370;-72
2023/05/21 07:31:31;;;;;;;10.87;9.77;;;18.70;87.50;;;;;;6174930;23;20378;-73
2023/05/21 07:33:57;;;;;;;11.33;10.13;;;18.80;87.50;;;;;;6175165;23;20147;-74
2023/05/21 07:36:28;;;;;;;12.87;9.97;;;18.70;87.40;;;;;;6201824;23;20323;-75
2023/05/21 07:38:55;;;;;;;11.90;9.90;;;18.70;87.30;;;;;;6176398;23;20397;-73
2023/05/21 07:41:21;;;;;;;12.10;10.90;;;18.80;87.50;;;;;;6172939;23;20440;-73
2023/05/21 07:43:49;;;;;;;12.17;10.97;;;18.90;83.00;;;;;;6168965;23;20441;-73
2023/05/21 07:46:14;;;;;;;10.03;9.03;;;18.80;85.50;;;;;;6169205;23;20384;-77
2023/05/21 07:48:42;;;;;;;8.30;7.50;;;19.00;86.00;;;;;;6167708;23;20495;-77
2023/05/21 07:51:09;;;;;;;13.37;11.40;;;19.10;84.80;;;;;;6195255;23;20430;-74
2023/05/21 07:53:36;;;;;;;12.40;9.70;;;19.10;81.90;;;;;;6169911;23;20416;-73
2023/05/21 07:56:06;;;;;;;11.47;9.57;;;19.20;83.70;;;;;;6170266;23;20372;-77
2023/05/21 07:58:33;;;;;;;14.27;10.80;;;19.30;80.10;;;;;;6169790;23;20376;-78
2023/05/21 08:00:59;;;;;;;11.23;10.13;;;19.30;81.10;;;;;;6169830;23;20407;-73
2023/05/21 08:03:29;;;;;;;11.73;9.93;;;19.30;80.60;;;;;;6170015;23;20412;-73
2023/05/21 08:05:55;;;;;;;12.83;9.67;;;19.30;81.30;;;;;;6170184;23;20390;-74
2023/05/21 08:08:22;;;;;;;9.80;8.83;;;19.40;79.80;;;;;;6196289;23;20411;-73
2023/05/21 08:10:50;;;;;;;13.10;11.80;;;19.40;79.40;;;;;;6170382;23;20170;-73
2023/05/21 08:13:16;;;;;;;13.10;11.10;;;19.50;77.40;;;;;;6170317;23;20369;-73
2023/05/21 08:15:42;;;;;;;11.03;9.00;;;19.60;77.50;;;;;;6145286;23;20136;-73
2023/05/21 08:18:08;;;;;;;11.90;10.30;;;19.50;76.80;;;;;;6169013;23;20839;-73
2023/05/21 08:20:34;;;;;;;13.20;10.47;;;19.40;77.00;;;;;;6170675;23;20426;-73
2023/05/21 08:23:00;;;;;;;10.00;9.03;;;19.30;76.90;;;;;;6169145;23;20406;-73
2023/05/21 08:25:29;;;;;;;10.23;9.23;;;19.10;80.70;;;;;;6194622;23;20411;-74
2023/05/21 08:27:55;;;;;;;11.77;10.20;;;19.10;81.70;;;;;;6168302;23;20387;-73
2023/05/21 08:30:23;;;;;;;10.20;9.10;;;19.10;81.90;;;;;;6170528;23;20399;-74
2023/05/21 08:32:49;;;;;;;9.77;8.77;;;19.20;82.30;;;;;;6171617;23;20144;-73
2023/05/21 08:35:17;;;;;;;10.80;9.03;;;19.30;81.90;;;;;;6172348;23;20389;-74
2023/05/21 08:37:52;;;;;;;11.10;9.97;;;19.40;81.50;;;;;;6151095;23;20398;-74
2023/05/21 08:40:26;;;;;;;15.37;12.00;;;19.50;79.30;;;;;;6168150;23;20438;-74
2023/05/21 08:42:52;;;;;;;13.87;11.30;;;19.50;78.30;;;;;;6166424;23;20904;-75
2023/05/21 08:45:25;;;;;;;10.97;9.87;;;19.30;81.40;;;;;;6170382;23;20146;-74
2023/05/21 08:47:56;;;;;;;11.00;9.90;;;19.40;80.20;;;;;;6167790;23;20492;-74
2023/05/21 08:50:26;;;;;;;10.90;9.90;;;19.60;80.10;;;;;;6191615;23;20404;-73
2023/05/21 08:52:54;;;;;;;11.80;9.83;;;19.70;78.30;;;;;;6167559;23;20375;-75
2023/05/21 08:55:22;;;;;;;8.37;7.57;;;19.70;79.60;;;;;;6168453;23;20367;-75
2023/05/21 08:57:48;;;;;;;13.20;10.50;;;19.80;79.30;;;;;;6169282;23;20341;-74
2023/05/21 09:00:16;;;;;;;13.80;12.40;;;19.80;77.20;;;;;;6168835;23;20392;-74
2023/05/21 09:02:43;;;;;;;10.97;9.60;;;19.90;77.00;;;;;;6193457;23;20641;-74
2023/05/21 09:05:09;;;;;;;9.77;8.03;;;19.80;78.20;;;;;;6169195;23;20233;-74
2023/05/21 09:07:45;;;;;;;13.27;10.13;;;20.00;78.10;;;;;;6168247;23;20444;-73
2023/05/21 09:10:39;;;;;;;10.33;9.33;;;20.20;76.00;;;;;;6127173;23;20483;-74
2023/05/21 09:13:06;;;;;;;10.73;9.23;;;20.40;72.50;;;;;;6196002;23;20376;-76
2023/05/21 09:15:32;;;;;;;11.30;10.10;;;20.40;74.60;;;;;;6146615;23;20377;-75
2023/05/21 09:17:58;;;;;;;12.03;10.67;;;20.30;75.10;;;;;;6166738;23;20377;-72
2023/05/21 09:20:37;;;;;;;11.70;10.50;;;20.30;75.20;;;;;;6167309;23;20530;-72
2023/05/21 09:23:05;;;;;;;13.40;11.33;;;20.40;74.50;;;;;;6172983;23;20413;-73
2023/05/21 09:25:31;;;;;;;11.57;9.33;;;20.40;73.80;;;;;;6146408;23;20372;-71
2023/05/21 09:28:02;;;;;;;10.73;9.63;;;20.50;74.40;;;;;;6167719;23;20605;-75
2023/05/21 09:30:28;;;;;;;11.60;10.23;;;20.70;73.00;;;;;;6167922;23;20444;-72
2023/05/21 09:32:58;;;;;;;10.13;9.10;;;20.80;71.30;;;;;;6197070;23;20142;-74
2023/05/21 09:35:25;;;;;;;12.87;11.20;;;20.80;70.90;;;;;;6169137;23;20238;-72
2023/05/21 09:37:52;;;;;;;10.30;9.07;;;20.90;70.80;;;;;;6150238;23;20396;-73
2023/05/21 09:40:20;;;;;;;10.97;9.67;;;20.90;70.70;;;;;;6153732;23;20411;-74
2023/05/21 09:42:48;;;;;;;14.27;12.77;;;21.10;70.10;;;;;;6172038;23;20417;-73
2023/05/21 09:45:22;;;;;;;14.70;12.00;;;21.10;67.90;;;;;;6171439;23;20365;-74
2023/05/21 09:47:51;;;;;;;13.53;12.23;;;21.10;69.10;;;;;;6170557;23;20375;-74
2023/05/21 09:50:30;;;;;;;10.73;9.73;;;21.10;68.90;;;;;;6170266;23;20425;-74
2023/05/21 09:52:57;;;;;;;10.80;9.80;;;21.10;68.90;;;;;;6170342;23;20370;-74
2023/05/21 09:55:23;;;;;;;11.40;10.40;;;21.20;69.70;;;;;;6170239;23;20849;-75
2023/05/21 09:57:50;;;;;;;9.40;8.50;;;21.40;68.40;;;;;;6171059;23;20370;-72
2023/05/21 10:00:26;;;;;;;11.80;10.70;;;21.50;68.30;;;;;;6169940;23;20397;-74
2023/05/21 10:02:53;;;;;;;12.60;11.20;;;21.70;66.20;;;;;;6199657;23;20412;-75
2023/05/21 10:05:19;;;;;;;11.33;10.20;;;21.70;66.20;;;;;;6196468;23;20768;-74
2023/05/21 10:07:50;;;;;;;10.70;9.60;;;21.80;65.00;;;;;;6170274;23;20610;-74
2023/05/21 10:10:18;;;;;;;12.97;11.67;;;21.80;64.40;;;;;;6198839;23;20488;-77
2023/05/21 10:12:46;;;;;;;14.30;12.83;;;21.80;64.20;;;;;;6198865;23;20632;-75
2023/05/21 10:15:15;;;;;;;19.03;12.23;;;21.90;63.80;;;;;;6171776;23;20390;-73
2023/05/21 10:17:42;;;;;;;13.17;11.97;;;21.80;63.40;;;;;;6172110;23;20465;-74
2023/05/21 10:20:09;;;;;;;13.20;11.40;;;21.60;64.60;;;;;;6173979;23;20409;-76
2023/05/21 10:22:36;;;;;;;12.27;11.07;;;21.80;64.80;;;;;;6151678;23;20406;-75
2023/05/21 10:25:02;;;;;;;13.17;11.87;;;21.90;63.90;;;;;;6173439;23;20381;-76
2023/05/21 10:27:29;;;;;;;11.77;10.67;;;21.90;63.10;;;;;;6171559;23;20389;-75
2023/05/21 10:29:57;;;;;;;16.27;13.70;;;21.90;63.90;;;;;;6200189;23;20420;-74
2023/05/21 10:32:26;;;;;;;15.17;13.50;;;21.90;64.00;;;;;;6172699;23;20469;-74
2023/05/21 10:34:53;;;;;;;10.77;9.77;;;21.60;65.60;;;;;;6172448;23;20378;-76
2023/05/21 10:37:22;;;;;;;14.07;12.57;;;21.70;66.80;;;;;;6173311;23;20412;-76
2023/05/21 10:39:49;;;;;;;13.70;11.60;;;21.90;65.00;;;;;;6199447;23;20401;-75
2023/05/21 10:42:22;;;;;;;12.00;10.80;;;22.10;64.50;;;;;;6173031;23;20444;-73
2023/05/21 10:45:00;;;;;;;12.50;11.30;;;22.10;64.10;;;;;;6176610;23;20412;-75
2023/05/21 10:47:43;;;;;;;13.33;11.67;;;22.30;62.90;;;;;;6203231;23;20386;-76
2023/05/21 10:50:39;;;;;;;13.07;11.70;;;22.40;62.30;;;;;;6165820;23;20422;-76
2023/05/21 10:53:43;;;;;;;13.40;11.80;;;22.60;61.30;;;;;;6167619;23;20379;-74
2023/05/21 10:56:22;;;;;;;13.20;11.87;;;22.60;60.60;;;;;;6165662;23;20375;-73
2023/05/21 10:59:00;;;;;;;12.23;11.03;;;22.60;60.90;;;;;;6168399;23;20446;-76
2023/05/21 11:01:35;;;;;;;12.53;11.43;;;22.80;60.50;;;;;;6168224;23;20374;-75
2023/05/21 11:04:02;;;;;;;16.17;12.13;;;22.80;59.70;;;;;;6167715;23;20866;-75
2023/05/21 11:06:28;;;;;;;13.40;12.10;;;22.90;59.70;;;;;;6169947;23;20414;-74
2023/05/21 11:08:53;;;;;;;12.23;10.93;;;23.00;59.80;;;;;;6171449;23;20379;-74
2023/05/21 11:11:41;;;;;;;13.23;11.40;;;23.10;59.40;;;;;;6167939;23;20220;-75
2023/05/21 11:14:26;;;;;;;14.80;13.40;;;23.00;58.80;;;;;;6171692;23;20150;-78
2023/05/21 11:16:53;;;;;;;13.70;12.03;;;23.00;58.90;;;;;;6143556;23;20441;-75
2023/05/21 11:19:18;;;;;;;11.67;10.37;;;22.90;59.60;;;;;;6167971;23;20417;-76
2023/05/21 11:21:50;;;;;;;13.90;11.67;;;22.90;60.00;;;;;;6168279;23;20436;-73
2023/05/21 11:24:19;;;;;;;14.90;13.37;;;23.10;59.80;;;;;;6165377;23;20370;-77
2023/05/21 11:26:48;;;;;;;13.00;11.80;;;23.00;59.50;;;;;;6166406;23;20362;-76
2023/05/21 11:29:15;;;;;;;14.00;12.60;;;23.00;59.20;;;;;;6166919;23;20390;-77
2023/05/21 11:32:01;;;;;;;14.53;13.13;;;22.90;59.50;;;;;;6145067;23;20379;-77
2023/05/21 11:34:42;;;;;;;14.23;12.83;;;22.90;60.00;;;;;;6167925;23;20373;-76
2023/05/21 11:37:23;;;;;;;13.30;11.90;;;22.90;60.00;;;;;;6170489;23;20363;-76
2023/05/21 11:39:50;;;;;;;15.73;12.73;;;22.90;60.10;;;;;;6167967;23;20409;-75
2023/05/21 11:42:38;;;;;;;13.40;11.97;;;23.10;59.90;;;;;;6167492;23;20402;-76
2023/05/21 11:45:04;;;;;;;13.17;11.83;;;23.40;59.30;;;;;;6136410;23;20418;-75
2023/05/21 11:47:31;;;;;;;12.97;11.87;;;23.40;59.00;;;;;;6170760;23;20359;-74
2023/05/21 11:49:59;;;;;;;11.40;10.30;;;23.50;59.10;;;;;;6169891;23;20430;-76
2023/05/21 11:52:28;;;;;;;13.53;11.80;;;23.50;59.20;;;;;;6169521;23;20626;-74
2023/05/21 11:54:55;;;;;;;13.60;12.30;;;23.70;58.80;;;;;;6168563;23;20370;-73
2023/05/21 11:57:25;;;;;;;13.77;12.47;;;23.80;57.80;;;;;;6169172;23;20409;-75
2023/05/21 11:59:51;;;;;;;12.70;11.40;;;23.70;57.80;;;;;;6171469;23;20426;-76
2023/05/21 12:02:19;;;;;;;13.47;11.63;;;23.70;58.20;;;;;;6171101;23;20406;-74
2023/05/21 12:04:47;;;;;;;14.00;12.50;;;23.80;58.20;;;;;;6170625;23;20367;-76
2023/05/21 12:07:14;;;;;;;14.60;13.17;;;23.90;58.20;;;;;;6170807;23;20663;-77
2023/05/21 12:09:44;;;;;;;13.77;12.47;;;24.00;57.30;;;;;;6172088;23;20379;-74
2023/05/21 12:12:12;;;;;;;14.03;12.83;;;24.10;57.30;;;;;;6169887;23;20406;-77
2023/05/21 12:14:39;;;;;;;15.63;14.10;;;24.20;56.70;;;;;;6168200;23;20387;-74
2023/05/21 12:17:06;;;;;;;14.70;12.10;;;24.10;56.60;;;;;;6170965;23;20375;-75
2023/05/21 12:19:36;;;;;;;14.97;13.37;;;24.00;56.90;;;;;;6169034;23;20473;-76
2023/05/21 12:22:03;;;;;;;13.30;12.00;;;23.90;57.40;;;;;;6167957;23;20442;-74
2023/05/21 12:24:29;;;;;;;13.53;12.13;;;23.80;57.30;;;;;;6167160;23;20371;-74
2023/05/21 12:26:58;;;;;;;12.50;11.30;;;23.70;57.50;;;;;;6168501;23;20382;-75
2023/05/21 12:29:25;;;;;;;15.93;14.43;;;23.70;57.90;;;;;;6167606;23;20398;-76
2023/05/21 12:31:51;;;;;;;12.10;11.00;;;23.80;57.80;;;;;;6167020;23;20413;-74
2023/05/21 12:34:46;;;;;;;15.03;13.73;;;24.00;58.00;;;;;;6166775;23;20780;-77
2023/05/21 12:37:30;;;;;;;12.00;10.90;;;24.00;57.80;;;;;;6165825;23;20155;-74